Bellevue, WA (98006)

8:03 PM PDT on July 23, 2016 (GMT -0700)
Lake Hills | | Change Station

Elev 328 ft 47.60 °N, 122.15 °W | Updated 9 seconds ago

Clear
Clear
69.6 °F
Feels Like 69.6 °F
N
2.0
Wind Variable Wind from West
Gusts 2.5 mph

Today
High -- | Low -- °F
--% Chance of Precip.
Yesterday
High -- | Low -- °F
Precip. -- in
Pressure 30.20 in
Visibility 10.0 miles
Clouds Clear
Dew Point 56 °F
Humidity 63%
Rainfall 0.00 in
Snow Depth Not available.
5:35 AM 8:53 PM
Waning Gibbous, 80% visible
METAR KRNT 240253Z 29006KT 10SM CLR 22/11 A3019 RMK AO2 SLP227 6//// T02170111 56012 PNO $
Pressure 30.20 in
Visibility 10.0 miles
Clouds Clear
Dew Point 56 °F
Humidity 63%
Rainfall 0.00 in
Snow Depth Not available.
5:35 AM 8:53 PM
Waning Gibbous, 80% visible
METAR KRNT 240253Z 29006KT 10SM CLR 22/11 A3019 RMK AO2 SLP227 6//// T02170111 56012 PNO $

10-Day Weather Forecast

Almanac

Astronomy

Jul. 23, 2016 Rise Set
Actual Time
Civil Twilight
Nautical Twilight
Astronomical Twilight
Moon
Length of Visible Light
Length of Day
Tomorrow will be .
, % of the Moon is Illuminated

Today's Extremes

State Highs State Lows

Community

WunderPhotos

Upload Photos

1,927,016 photos uploaded!

WunderBlog® & News

Nearby

Air Quality

  Air Quality AQ Index Pollutant
Not available.

Snow Depth

Station Depth Elevation

Earthquake Activity

City Distance Mag. Time & Date
Minimum magnitude displayed is 2.5.

Coastal Water Temperatures

Place Temperature

Stations

Nearby Weather Stations

Station Location Temp. Windchill Dew Point Humidity Wind Precip. Elev Updated Type
                   

Watches & Warnings

There are currently no watches in effect.